Airfield :
LOGIN :

Register | Disclaimer

   EN    FR    IT 

 










Legend :    VFR   Marginal VFR   IFR   Intensive IFR   Very Intensive IFR
Visi :
Ceiling :
>= 8 km
>= 3000ft
5 to 8 km
1000 to 3000 ft
1500m to 5 km
500 to 1000 ft
800 to 1500m
200 to 500 ft
< 800m
< 200 ft
Symbols :   Thunderstorms  Fog  Heavy snow  Heavy precipitations  Wind > 20 kt
SIGMETs :     Misc.  Thunderstorms  Icing  Turbulence  Mountain Waves  Volcanic Ashes







- Airport Elevation : 885 ft
- IATA code : BAS
- Download approach charts


LFSB - Bale-Mulhouse

CURRENT METAR :
  • 190230Z 29005KT 2000 BR OVC004 11/11 Q1020 NOSIG

EXPIRED METARs :
  • 190200Z AUTO 29005KT 3300 BR OVC004 11/10 Q1019 TEMPO 0300 FG VV///
  • 190130Z AUTO VRB02KT 2500 1100 R15/1100U R33/1200U BR BKN005 BKN009 09/09 Q1019 TEMPO 0300 FG VV///
  • 190100Z AUTO 27004KT 2600 R33/1400U BR NSC 09/09 Q1019 TEMPO 0300 FG VV///
  • 190030Z AUTO 31005KT 2900 BR NSC 09/09 Q1020 TEMPO 0300 FG VV///
  • 190000Z AUTO 28004KT 3800 BR NSC 10/10 Q1020 TEMPO 0500 BCFG BKN001

TAF TAF LFSB
Valid from the 19 at 00:00 until the 20 at 00:00 UTC


182300Z 1900/1924 34005KT 2500 BR NSC
TEMPO 1900/1902 0500 BCFG BKN001
BECMG 1900/1904 1200 BR OVC003
TEMPO 1902/1908 0300 FG VV///
BECMG 1908/1910 4500 BR BKN008
BECMG 1910/1912 CAVOK
BECMG 1920/1923 2500 BR
Met : +33 3 89 90 31 11
No reported NOTAMs for that airfield.



MET'MAP, your aeronautical weather chart ! - Copyright ORBIFLY December 2007 - Disclaimer

ORBIFLY MET'MAP TEAM :

Programming & Development : Alexandra Zaïnal
Concept & Development : Baudouin d'Aumeries
Co-Development & Prog : Marc-Olivier Méhu
Technical & hardware support : Manuel Goepfert

Contact : metmap@orbifly.com




SOURCES & CREDITS :

   NOAA